createdAt,value
2018-08-04T00:00:09.446Z,22.67
2018-08-04T00:02:02.332Z,22.55
2018-08-04T00:03:02.185Z,22.48
2018-08-04T00:04:55.030Z,22.46
2018-08-04T00:05:54.924Z,22.49
2018-08-04T00:07:47.801Z,22.52
2018-08-04T00:08:47.681Z,22.53
2018-08-04T00:10:40.553Z,22.61
2018-08-04T00:11:40.433Z,22.59
2018-08-04T00:13:33.283Z,22.59
2018-08-04T00:14:33.174Z,22.64
2018-08-04T00:16:26.025Z,22.43
2018-08-04T00:17:25.926Z,22.53
2018-08-04T00:19:18.764Z,22.58
2018-08-04T00:20:18.691Z,22.53
2018-08-04T00:22:11.530Z,22.46
2018-08-04T00:23:11.432Z,22.43
2018-08-04T00:25:04.278Z,22.49
2018-08-04T00:26:04.172Z,22.38
2018-08-04T00:27:57.046Z,22.36
2018-08-04T00:28:56.930Z,22.40
2018-08-04T00:30:49.791Z,22.40
2018-08-04T00:31:49.681Z,22.33
2018-08-04T00:33:42.529Z,22.25
2018-08-04T00:34:42.442Z,22.25
2018-08-04T00:36:35.284Z,22.18
2018-08-04T00:37:35.167Z,22.23
2018-08-04T00:39:28.050Z,22.18
2018-08-04T00:40:27.927Z,22.23
2018-08-04T00:42:20.796Z,22.27
2018-08-04T00:43:20.677Z,22.16
2018-08-04T00:45:13.504Z,22.16
2018-08-04T00:46:13.417Z,22.15
2018-08-04T00:48:06.275Z,22.22
2018-08-04T00:49:06.196Z,22.22
2018-08-04T00:50:59.009Z,22.22
2018-08-04T00:51:58.915Z,22.21
2018-08-04T00:53:51.805Z,22.15
2018-08-04T00:54:51.690Z,22.18
2018-08-04T00:56:44.542Z,22.11
2018-08-04T00:57:44.417Z,22.15
2018-08-04T00:59:37.283Z,22.22
2018-08-04T01:00:37.204Z,22.19
2018-08-04T01:02:30.009Z,22.18
2018-08-04T01:03:29.915Z,22.09
2018-08-04T01:05:23.292Z,22.19
2018-08-04T01:06:22.674Z,22.09
2018-08-04T01:08:15.534Z,22.16
2018-08-04T01:09:15.413Z,22.12
2018-08-04T01:11:08.253Z,22.12
2018-08-04T01:12:08.172Z,22.11
2018-08-04T01:14:01.053Z,22.13
2018-08-04T01:15:00.914Z,22.04
2018-08-04T01:16:53.768Z,22.06
2018-08-04T01:17:53.663Z,22.03
2018-08-04T01:19:47.037Z,22.01
2018-08-04T01:20:46.416Z,21.98
2018-08-04T01:22:39.249Z,21.96
2018-08-04T01:23:39.169Z,21.88
2018-08-04T01:25:32.039Z,21.96
2018-08-04T01:26:31.911Z,21.93
2018-08-04T01:28:24.782Z,21.81
2018-08-04T01:29:24.667Z,21.88
2018-08-04T01:31:17.517Z,21.82
2018-08-04T01:32:17.409Z,21.80
2018-08-04T01:34:11.251Z,21.81
2018-08-04T01:35:11.091Z,21.93
2018-08-04T01:37:03.952Z,21.78
2018-08-04T01:38:03.840Z,21.78
2018-08-04T01:39:56.688Z,21.78
2018-08-04T01:40:56.583Z,21.73
2018-08-04T01:42:49.439Z,21.71
2018-08-04T01:43:49.329Z,21.67
2018-08-04T01:45:42.190Z,21.69
2018-08-04T01:46:42.099Z,21.69
2018-08-04T01:48:34.919Z,21.65
2018-08-04T01:49:34.828Z,21.67
2018-08-04T01:51:27.687Z,21.45
2018-08-04T01:52:27.609Z,21.45
2018-08-04T01:54:20.419Z,21.41
2018-08-04T01:55:20.330Z,21.43
2018-08-04T01:57:13.188Z,21.45
2018-08-04T01:58:13.082Z,21.47
2018-08-04T02:00:05.918Z,21.48
2018-08-04T02:01:05.831Z,21.53
2018-08-04T02:02:58.680Z,21.75
2018-08-04T02:03:58.580Z,21.90
2018-08-04T02:05:51.425Z,21.90
2018-08-04T02:06:51.325Z,21.93
2018-08-04T02:08:44.186Z,22.00
2018-08-04T02:09:44.073Z,22.01
2018-08-04T02:11:36.916Z,22.12
2018-08-04T02:12:36.840Z,22.15
2018-08-04T02:14:29.702Z,22.22
2018-08-04T02:15:29.569Z,22.25
2018-08-04T02:17:22.423Z,22.16
2018-08-04T02:18:22.341Z,22.07
2018-08-04T02:20:15.188Z,21.97
2018-08-04T02:21:15.077Z,22.04
2018-08-04T02:23:07.951Z,22.00
2018-08-04T02:24:07.825Z,21.81
2018-08-04T02:26:01.092Z,21.90
2018-08-04T02:27:00.994Z,21.85
2018-08-04T02:28:53.841Z,21.94
2018-08-04T02:29:53.740Z,22.01
2018-08-04T02:31:46.570Z,22.13
2018-08-04T02:32:46.480Z,22.07
2018-08-04T02:34:39.346Z,22.16
2018-08-04T02:35:39.234Z,22.22
2018-08-04T02:37:32.074Z,22.22
2018-08-04T02:38:31.997Z,22.27
2018-08-04T02:40:24.832Z,22.37
2018-08-04T02:41:24.726Z,22.27
2018-08-04T02:43:17.576Z,22.15
2018-08-04T02:44:17.481Z,22.11
2018-08-04T02:46:10.339Z,22.04
2018-08-04T02:47:10.228Z,21.97
2018-08-04T02:49:03.094Z,21.93
2018-08-04T02:50:02.979Z,21.84
2018-08-04T02:51:55.836Z,21.82
2018-08-04T02:52:55.738Z,21.85
2018-08-04T02:54:48.611Z,21.90
2018-08-04T02:55:48.478Z,21.82
2018-08-04T02:57:41.359Z,21.71
2018-08-04T02:58:41.233Z,21.71
2018-08-04T03:00:34.102Z,21.58
2018-08-04T03:01:33.981Z,21.55
2018-08-04T03:03:26.808Z,21.45
2018-08-04T03:04:26.725Z,21.43
2018-08-04T03:06:19.589Z,21.44
2018-08-04T03:07:19.482Z,21.43
2018-08-04T03:09:12.351Z,21.38
2018-08-04T03:10:12.227Z,21.37
2018-08-04T03:12:05.091Z,21.28
2018-08-04T03:13:04.978Z,21.25
2018-08-04T03:14:57.823Z,21.13
2018-08-04T03:15:57.745Z,21.19
2018-08-04T03:17:50.595Z,21.25
2018-08-04T03:18:50.509Z,21.23
2018-08-04T03:20:43.370Z,21.25
2018-08-04T03:21:43.256Z,21.25
2018-08-04T03:23:36.091Z,21.29
2018-08-04T03:24:35.988Z,21.22
2018-08-04T03:26:28.852Z,21.26
2018-08-04T03:27:28.752Z,21.25
2018-08-04T03:29:21.604Z,21.22
2018-08-04T03:30:21.495Z,21.25
2018-08-04T03:32:14.324Z,21.18
2018-08-04T03:33:14.243Z,21.19
2018-08-04T03:35:07.137Z,21.19
2018-08-04T03:36:06.973Z,21.20
2018-08-04T03:37:59.824Z,21.08
2018-08-04T03:38:59.732Z,21.16
2018-08-04T03:40:52.593Z,21.01
2018-08-04T03:41:52.488Z,21.08
2018-08-04T03:43:45.756Z,21.04
2018-08-04T03:44:45.637Z,21.01
2018-08-04T03:46:38.897Z,20.98
2018-08-04T03:47:38.793Z,21.01
2018-08-04T03:49:32.076Z,21.03
2018-08-04T03:50:31.985Z,21.05
2018-08-04T03:52:24.790Z,20.97
2018-08-04T03:53:24.693Z,20.92
2018-08-04T03:55:17.554Z,20.97
2018-08-04T03:56:17.447Z,20.95
2018-08-04T03:58:10.291Z,20.89
2018-08-04T03:59:10.196Z,20.98
2018-08-04T04:01:03.064Z,20.93
2018-08-04T04:02:02.959Z,20.88
2018-08-04T04:03:55.801Z,20.92
2018-08-04T04:04:55.722Z,20.88
2018-08-04T04:06:48.560Z,20.93
2018-08-04T04:07:48.455Z,21.01
2018-08-04T04:09:41.333Z,21.10
2018-08-04T04:10:41.199Z,21.07
2018-08-04T04:12:34.039Z,21.04
2018-08-04T04:13:33.943Z,21.01
2018-08-04T04:15:26.818Z,21.11
2018-08-04T04:16:26.701Z,21.08
2018-08-04T04:18:19.557Z,21.22
2018-08-04T04:19:19.462Z,21.10
2018-08-04T04:21:12.330Z,21.05
2018-08-04T04:22:12.191Z,21.03
2018-08-04T04:24:05.052Z,21.00
2018-08-04T04:25:04.947Z,21.03
2018-08-04T04:26:57.823Z,21.00
2018-08-04T04:27:57.716Z,20.98
2018-08-04T04:29:50.586Z,21.04
2018-08-04T04:30:50.451Z,21.13
2018-08-04T04:32:43.302Z,21.25
2018-08-04T04:33:43.195Z,21.35
2018-08-04T04:35:36.064Z,21.30
2018-08-04T04:36:35.940Z,21.32
2018-08-04T04:38:28.792Z,21.43
2018-08-04T04:39:28.696Z,21.43
2018-08-04T04:41:21.548Z,21.41
2018-08-04T04:42:21.471Z,21.50
2018-08-04T04:44:14.297Z,21.41
2018-08-04T04:45:14.191Z,21.38
2018-08-04T04:47:07.058Z,21.40
2018-08-04T04:48:06.962Z,21.56
2018-08-04T04:49:59.792Z,21.56
2018-08-04T04:50:59.688Z,21.62
2018-08-04T04:52:52.530Z,21.56
2018-08-04T04:53:52.453Z,21.62
2018-08-04T04:55:45.319Z,21.63
2018-08-04T04:56:45.227Z,21.66
2018-08-04T04:58:38.065Z,21.71
2018-08-04T04:59:37.955Z,21.66
2018-08-04T05:01:30.840Z,21.65
2018-08-04T05:02:30.721Z,21.56
2018-08-04T05:04:23.541Z,21.62
2018-08-04T05:05:23.454Z,21.65
2018-08-04T05:07:16.311Z,21.73
2018-08-04T05:08:16.202Z,21.75
2018-08-04T05:10:09.045Z,21.81
2018-08-04T05:11:08.938Z,21.77
2018-08-04T05:13:01.806Z,21.75
2018-08-04T05:14:01.688Z,21.78
2018-08-04T05:15:54.567Z,21.77
2018-08-04T05:16:54.577Z,21.75
2018-08-04T05:18:47.282Z,21.82
2018-08-04T05:19:47.193Z,21.80
2018-08-04T05:21:40.637Z,21.81
2018-08-04T05:22:39.941Z,21.77
2018-08-04T05:24:32.811Z,21.80
2018-08-04T05:25:32.704Z,21.84
2018-08-04T05:27:26.461Z,21.80
2018-08-04T05:28:26.354Z,21.81
2018-08-04T05:30:19.204Z,21.84
2018-08-04T05:31:19.130Z,21.73
2018-08-04T05:33:11.950Z,21.85
2018-08-04T05:34:11.852Z,21.82
2018-08-04T05:36:04.725Z,21.88
2018-08-04T05:37:04.628Z,21.84
2018-08-04T05:38:57.554Z,21.94
2018-08-04T05:39:57.493Z,21.90
2018-08-04T05:41:50.332Z,21.96
2018-08-04T05:42:50.231Z,21.97
2018-08-04T05:44:43.184Z,22.03
2018-08-04T05:45:43.060Z,22.00
2018-08-04T05:47:36.033Z,22.09
2018-08-04T05:48:35.912Z,22.03
2018-08-04T05:50:28.874Z,22.09
2018-08-04T05:51:28.762Z,22.12
2018-08-04T05:53:21.750Z,22.15
2018-08-04T05:54:21.642Z,22.09
2018-08-04T05:56:14.594Z,22.11
2018-08-04T05:57:14.476Z,22.13
2018-08-04T05:59:07.410Z,22.12
2018-08-04T06:00:07.317Z,22.18
2018-08-04T06:02:00.298Z,22.23
2018-08-04T06:03:00.189Z,22.37
2018-08-04T06:04:53.153Z,22.43
2018-08-04T06:05:53.019Z,22.48
2018-08-04T06:07:45.981Z,22.48
2018-08-04T06:08:45.887Z,22.48
2018-08-04T06:10:38.850Z,22.41
2018-08-04T06:11:38.764Z,22.53
2018-08-04T06:13:31.676Z,22.67
2018-08-04T06:14:31.587Z,22.71
2018-08-04T06:16:24.539Z,22.85
2018-08-04T06:17:24.439Z,22.80
2018-08-04T06:19:17.371Z,22.95
2018-08-04T06:20:17.302Z,22.93
2018-08-04T06:22:10.259Z,22.99
2018-08-04T06:23:10.154Z,23.04
2018-08-04T06:25:03.110Z,23.21
2018-08-04T06:26:03.001Z,23.21
2018-08-04T06:27:55.972Z,23.33
2018-08-04T06:28:55.854Z,23.31
2018-08-04T06:30:48.798Z,23.44
2018-08-04T06:31:48.707Z,23.44
2018-08-04T06:33:41.628Z,23.56
2018-08-04T06:34:41.552Z,23.64
2018-08-04T06:36:34.522Z,23.69
2018-08-04T06:37:34.400Z,23.71
2018-08-04T06:39:27.335Z,23.79
2018-08-04T06:40:27.255Z,23.92
2018-08-04T06:42:20.209Z,24.03
2018-08-04T06:43:20.120Z,24.06
2018-08-04T06:45:13.059Z,24.15
2018-08-04T06:46:12.982Z,24.23
2018-08-04T06:48:06.317Z,24.29
2018-08-04T06:49:06.212Z,24.45
2018-08-04T06:50:59.175Z,24.56
2018-08-04T06:51:59.065Z,24.70
2018-08-04T06:53:52.012Z,24.84
2018-08-04T06:54:51.916Z,24.84
2018-08-04T06:56:44.877Z,25.00
2018-08-04T06:57:44.766Z,25.14
2018-08-04T06:59:37.713Z,25.15
2018-08-04T07:00:37.635Z,25.27
2018-08-04T07:02:30.580Z,25.43
2018-08-04T07:03:30.476Z,25.48
2018-08-04T07:05:24.067Z,25.63
2018-08-04T07:06:23.947Z,25.70
2018-08-04T07:08:16.913Z,25.73
2018-08-04T07:09:16.824Z,25.89
2018-08-04T07:11:10.363Z,25.90
2018-08-04T07:12:10.255Z,25.98
2018-08-04T07:14:03.118Z,26.21
2018-08-04T07:15:03.006Z,26.34
2018-08-04T07:16:55.857Z,26.39
2018-08-04T07:17:56.319Z,26.42
2018-08-04T07:19:48.617Z,26.60
2018-08-04T07:20:48.528Z,26.60
2018-08-04T07:22:41.362Z,26.63
2018-08-04T07:23:41.253Z,26.71
2018-08-04T07:25:34.944Z,26.79
2018-08-04T07:26:34.013Z,26.82
2018-08-04T07:28:26.878Z,26.93
2018-08-04T07:29:26.767Z,26.80
2018-08-04T07:31:19.590Z,26.93
2018-08-04T07:32:19.519Z,26.94
2018-08-04T07:34:12.433Z,26.88
2018-08-04T07:35:12.273Z,26.86
2018-08-04T07:37:05.141Z,26.86
2018-08-04T07:38:05.009Z,26.80
2018-08-04T07:39:57.847Z,26.93
2018-08-04T07:40:57.769Z,26.85
2018-08-04T07:42:50.628Z,26.68
2018-08-04T07:43:50.514Z,26.67
2018-08-04T07:45:43.344Z,26.45
2018-08-04T07:46:43.260Z,26.38
2018-08-04T07:48:36.137Z,26.24
2018-08-04T07:49:36.000Z,26.30
2018-08-04T07:51:28.867Z,26.21
2018-08-04T07:52:28.755Z,26.26
2018-08-04T07:54:21.617Z,26.27
2018-08-04T07:55:21.510Z,26.31
2018-08-04T07:57:14.372Z,26.42
2018-08-04T07:58:14.260Z,26.36
2018-08-04T08:00:07.756Z,26.41
2018-08-04T08:01:07.517Z,26.38
2018-08-04T08:03:00.366Z,26.49
2018-08-04T08:04:00.289Z,26.60
2018-08-04T08:05:53.098Z,26.61
2018-08-04T08:06:53.030Z,26.53
2018-08-04T08:08:45.869Z,26.58
2018-08-04T08:09:45.763Z,26.75
2018-08-04T08:11:38.636Z,26.88
2018-08-04T08:12:38.529Z,27.08
2018-08-04T08:14:31.369Z,27.03
2018-08-04T08:15:31.269Z,27.07
2018-08-04T08:17:28.022Z,27.05
2018-08-04T08:20:20.963Z,26.93
2018-08-04T08:21:20.864Z,26.90
2018-08-04T08:23:14.099Z,26.82
2018-08-04T08:24:13.612Z,26.82
2018-08-04T08:26:06.458Z,26.79
2018-08-04T08:27:06.361Z,26.88
2018-08-04T08:28:59.193Z,26.97
2018-08-04T08:29:59.109Z,26.95
2018-08-04T08:31:51.962Z,26.90
2018-08-04T08:32:52.009Z,26.80
2018-08-04T08:34:44.721Z,26.89
2018-08-04T08:35:44.609Z,27.03
2018-08-04T08:37:37.455Z,27.23
2018-08-04T08:38:37.379Z,27.26
2018-08-04T08:40:30.290Z,27.37
2018-08-04T08:41:30.128Z,27.37
2018-08-04T08:43:23.482Z,27.27
2018-08-04T08:44:23.380Z,27.15
2018-08-04T08:46:16.295Z,27.20
2018-08-04T08:47:16.203Z,27.10
2018-08-04T08:49:08.957Z,27.19
2018-08-04T08:50:08.872Z,27.13
2018-08-04T08:52:01.926Z,27.13
2018-08-04T08:53:02.355Z,27.13
2018-08-04T08:54:54.669Z,27.03
2018-08-04T08:55:54.578Z,27.00
2018-08-04T08:57:47.921Z,27.01
2018-08-04T08:58:47.830Z,27.20
2018-08-04T09:00:40.679Z,27.26
2018-08-04T09:01:40.585Z,27.47
2018-08-04T09:03:33.423Z,27.49
2018-08-04T09:04:33.335Z,27.45
2018-08-04T09:06:26.179Z,27.30
2018-08-04T09:07:26.285Z,27.35
2018-08-04T09:09:18.915Z,27.52
2018-08-04T09:10:18.860Z,27.69
2018-08-04T09:12:11.714Z,27.94
2018-08-04T09:13:11.735Z,28.03
2018-08-04T09:15:04.953Z,27.63
2018-08-04T09:16:04.860Z,27.58
2018-08-04T09:17:58.195Z,27.40
2018-08-04T09:18:58.097Z,27.31
2018-08-04T09:20:50.956Z,27.30
2018-08-04T09:21:50.872Z,27.42
2018-08-04T09:23:43.690Z,27.64
2018-08-04T09:24:43.687Z,27.60
2018-08-04T09:26:36.469Z,27.68
2018-08-04T09:27:36.370Z,27.72
2018-08-04T09:29:29.233Z,28.00
2018-08-04T09:30:29.113Z,27.98
2018-08-04T09:32:21.950Z,28.38
2018-08-04T09:33:21.850Z,28.42
2018-08-04T09:35:14.697Z,28.34
2018-08-04T09:36:14.602Z,28.34
2018-08-04T09:38:07.439Z,27.97
2018-08-04T09:39:07.472Z,28.00
2018-08-04T09:41:00.215Z,28.07
2018-08-04T09:42:00.104Z,28.05
2018-08-04T09:43:52.960Z,27.95
2018-08-04T09:44:52.860Z,27.97
2018-08-04T09:46:45.703Z,28.22
2018-08-04T09:47:45.604Z,28.30
2018-08-04T09:49:39.487Z,28.27
2018-08-04T09:50:39.378Z,28.34
2018-08-04T09:52:32.242Z,28.46
2018-08-04T09:53:32.125Z,28.34
2018-08-04T09:55:24.973Z,28.27
2018-08-04T09:56:24.892Z,28.35
2018-08-04T09:58:17.731Z,28.38
2018-08-04T09:59:17.647Z,28.19
2018-08-04T10:01:10.477Z,28.37
2018-08-04T10:02:10.373Z,28.54
2018-08-04T10:04:03.210Z,28.46
2018-08-04T10:05:03.181Z,28.57
2018-08-04T10:06:55.976Z,28.35
2018-08-04T10:07:55.875Z,28.25
2018-08-04T10:09:49.640Z,28.34
2018-08-04T10:10:49.043Z,28.31
2018-08-04T10:12:41.470Z,28.03
2018-08-04T10:13:41.375Z,28.10
2018-08-04T10:15:35.633Z,27.98
2018-08-04T10:16:35.554Z,28.07
2018-08-04T10:18:28.409Z,28.05
2018-08-04T10:19:28.319Z,27.97
2018-08-04T10:21:21.139Z,27.95
2018-08-04T10:22:21.071Z,28.19
2018-08-04T10:24:13.932Z,28.28
2018-08-04T10:25:13.821Z,28.42
2018-08-04T10:27:06.698Z,28.69
2018-08-04T10:28:06.566Z,28.84
2018-08-04T10:29:59.384Z,29.07
2018-08-04T10:30:59.311Z,29.19
2018-08-04T10:32:52.211Z,29.13
2018-08-04T10:33:52.059Z,29.15
2018-08-04T10:35:44.906Z,29.25
2018-08-04T10:36:44.803Z,29.27
2018-08-04T10:38:37.712Z,29.25
2018-08-04T10:39:37.561Z,29.22
2018-08-04T10:41:30.415Z,29.25
2018-08-04T10:42:30.303Z,29.07
2018-08-04T10:44:24.685Z,29.15
2018-08-04T10:45:23.869Z,29.37
2018-08-04T10:47:16.732Z,29.24
2018-08-04T10:48:16.628Z,29.27
2018-08-04T10:50:09.984Z,29.02
2018-08-04T10:51:09.887Z,29.07
2018-08-04T10:53:02.747Z,29.22
2018-08-04T10:54:02.631Z,29.49
2018-08-04T10:55:56.012Z,29.59
2018-08-04T10:56:55.434Z,29.81
2018-08-04T10:58:48.235Z,30.00
2018-08-04T10:59:48.128Z,30.03
2018-08-04T11:01:40.961Z,30.05
2018-08-04T11:02:40.887Z,29.96
2018-08-04T11:04:33.758Z,29.81
2018-08-04T11:05:33.632Z,29.99
2018-08-04T11:07:26.480Z,29.77
2018-08-04T11:08:26.384Z,29.93
2018-08-04T11:10:19.220Z,30.05
2018-08-04T11:11:19.128Z,30.08
2018-08-04T11:13:11.990Z,30.20
2018-08-04T11:14:11.920Z,30.13
2018-08-04T11:16:04.741Z,30.26
2018-08-04T11:17:04.634Z,30.39
2018-08-04T11:18:57.480Z,30.32
2018-08-04T11:19:57.397Z,30.40
2018-08-04T11:21:50.222Z,30.52
2018-08-04T11:22:50.143Z,30.67
2018-08-04T11:24:42.991Z,30.67
2018-08-04T11:25:42.896Z,30.74
2018-08-04T11:27:35.760Z,30.86
2018-08-04T11:28:35.624Z,30.89
2018-08-04T11:30:28.481Z,30.85
2018-08-04T11:31:28.416Z,30.85
2018-08-04T11:33:21.222Z,30.82
2018-08-04T11:34:21.126Z,30.88
2018-08-04T11:36:13.954Z,30.78
2018-08-04T11:37:13.883Z,30.70
2018-08-04T11:39:06.722Z,30.53
2018-08-04T11:40:06.640Z,30.70
2018-08-04T11:42:00.027Z,30.89
2018-08-04T11:42:59.890Z,30.86
2018-08-04T11:44:52.768Z,31.04
2018-08-04T11:45:52.641Z,31.10
2018-08-04T11:47:45.481Z,31.08
2018-08-04T11:48:45.415Z,31.07
2018-08-04T11:50:38.217Z,31.10
2018-08-04T11:51:38.226Z,31.22
2018-08-04T11:53:31.030Z,31.27
2018-08-04T11:54:30.877Z,31.27
2018-08-04T11:56:23.736Z,30.93
2018-08-04T11:57:23.632Z,30.93
2018-08-04T11:59:16.513Z,30.73
2018-08-04T12:00:16.402Z,30.89
2018-08-04T12:02:09.745Z,31.15
2018-08-04T12:03:09.644Z,31.30
2018-08-04T12:05:02.484Z,31.44
2018-08-04T12:06:02.398Z,31.49
2018-08-04T12:07:55.238Z,31.75
2018-08-04T12:08:55.174Z,31.78
2018-08-04T12:10:47.998Z,31.75
2018-08-04T12:11:47.909Z,31.63
2018-08-04T12:13:40.752Z,31.74
2018-08-04T12:14:40.643Z,31.67
2018-08-04T12:16:34.007Z,31.70
2018-08-04T12:17:33.405Z,31.95
2018-08-04T12:19:26.256Z,31.91
2018-08-04T12:20:26.141Z,31.78
2018-08-04T12:22:19.891Z,32.01
2018-08-04T12:23:19.825Z,31.95
2018-08-04T12:25:12.669Z,31.75
2018-08-04T12:26:12.591Z,31.66
2018-08-04T12:28:05.409Z,31.78
2018-08-04T12:29:05.320Z,31.75
2018-08-04T12:30:58.153Z,31.89
2018-08-04T12:31:58.069Z,31.97
2018-08-04T12:33:50.906Z,32.04
2018-08-04T12:34:50.806Z,31.98
2018-08-04T12:36:43.656Z,31.89
2018-08-04T12:37:43.560Z,31.75
2018-08-04T12:39:36.417Z,31.63
2018-08-04T12:40:36.309Z,31.70
2018-08-04T12:42:29.142Z,31.81
2018-08-04T12:43:29.661Z,31.91
2018-08-04T12:45:21.951Z,32.28
2018-08-04T12:46:21.815Z,32.33
2018-08-04T12:48:14.666Z,32.42
2018-08-04T12:49:14.561Z,32.45
2018-08-04T12:51:07.401Z,32.41
2018-08-04T12:52:07.326Z,32.33
2018-08-04T12:54:00.186Z,32.43
2018-08-04T12:55:00.060Z,32.41
2018-08-04T12:56:52.918Z,32.38
2018-08-04T12:57:52.812Z,32.26
2018-08-04T12:59:45.656Z,32.24
2018-08-04T13:00:45.603Z,32.26
2018-08-04T13:02:38.404Z,32.20
2018-08-04T13:03:38.312Z,32.45
2018-08-04T13:05:31.168Z,32.42
2018-08-04T13:06:31.098Z,32.48
2018-08-04T13:08:23.931Z,32.28
2018-08-04T13:09:23.817Z,32.20
2018-08-04T13:11:16.634Z,32.01
2018-08-04T13:12:16.561Z,32.13
2018-08-04T13:14:09.397Z,32.04
2018-08-04T13:15:09.315Z,32.11
2018-08-04T13:17:02.135Z,32.39
2018-08-04T13:18:02.077Z,32.73
2018-08-04T13:19:55.005Z,32.95
2018-08-04T13:20:54.960Z,32.88
2018-08-04T13:22:47.760Z,32.51
2018-08-04T13:23:47.657Z,32.26
2018-08-04T13:25:40.530Z,32.31
2018-08-04T13:26:40.426Z,32.43
2018-08-04T13:28:33.257Z,32.80
2018-08-04T13:29:33.201Z,32.75
2018-08-04T13:31:25.991Z,32.70
2018-08-04T13:32:26.009Z,32.64
2018-08-04T13:34:18.751Z,32.77
2018-08-04T13:35:18.674Z,32.92
2018-08-04T13:37:11.544Z,33.24
2018-08-04T13:38:11.408Z,32.95
2018-08-04T13:40:04.254Z,32.91
2018-08-04T13:41:04.154Z,32.94
2018-08-04T13:42:57.073Z,32.85
2018-08-04T13:43:56.898Z,32.90
2018-08-04T13:45:49.753Z,32.85
2018-08-04T13:46:49.671Z,32.73
2018-08-04T13:48:42.545Z,32.45
2018-08-04T13:49:42.399Z,32.45
2018-08-04T13:51:35.240Z,32.72
2018-08-04T13:52:35.151Z,32.50
2018-08-04T13:54:28.749Z,32.70
2018-08-04T13:55:27.934Z,32.92
2018-08-04T13:57:20.751Z,32.76
2018-08-04T13:58:20.660Z,32.68
2018-08-04T14:00:13.501Z,32.88
2018-08-04T14:01:13.408Z,32.73
2018-08-04T14:03:06.264Z,33.01
2018-08-04T14:04:06.156Z,33.03
2018-08-04T14:05:59.022Z,33.24
2018-08-04T14:06:58.909Z,33.42
2018-08-04T14:08:51.745Z,33.06
2018-08-04T14:09:51.655Z,32.94
2018-08-04T14:11:44.480Z,32.82
2018-08-04T14:12:44.399Z,33.10
2018-08-04T14:14:37.267Z,33.17
2018-08-04T14:15:37.147Z,32.85
2018-08-04T14:17:30.030Z,32.91
2018-08-04T14:18:29.958Z,32.92
2018-08-04T14:20:22.739Z,33.19
2018-08-04T14:21:22.644Z,33.26
2018-08-04T14:23:15.510Z,32.90
2018-08-04T14:24:15.455Z,32.87
2018-08-04T14:26:08.260Z,33.06
2018-08-04T14:27:08.152Z,32.83
2018-08-04T14:29:00.994Z,33.03
2018-08-04T14:30:00.910Z,33.12
2018-08-04T14:31:53.751Z,33.07
2018-08-04T14:32:53.772Z,33.32
2018-08-04T14:34:46.563Z,33.51
2018-08-04T14:35:46.392Z,33.57
2018-08-04T14:37:39.225Z,33.54
2018-08-04T14:38:39.148Z,33.49
2018-08-04T14:40:32.005Z,33.81
2018-08-04T14:41:31.915Z,33.78
2018-08-04T14:43:24.751Z,33.45
2018-08-04T14:44:24.658Z,33.36
2018-08-04T14:46:17.472Z,32.97
2018-08-04T14:47:17.402Z,32.70
2018-08-04T14:49:10.286Z,32.85
2018-08-04T14:50:10.161Z,32.98
2018-08-04T14:52:03.000Z,32.85
2018-08-04T14:53:02.906Z,32.82
2018-08-04T14:54:56.290Z,32.65
2018-08-04T14:55:56.154Z,32.75
2018-08-04T14:57:49.509Z,32.92
2018-08-04T14:58:48.924Z,33.24
2018-08-04T15:00:41.744Z,33.44
2018-08-04T15:01:41.649Z,33.55
2018-08-04T15:03:34.529Z,33.69
2018-08-04T15:04:34.432Z,33.63
2018-08-04T15:06:27.260Z,33.64
2018-08-04T15:07:27.164Z,33.45
2018-08-04T15:09:19.999Z,33.58
2018-08-04T15:10:19.943Z,33.42
2018-08-04T15:12:12.758Z,33.29
2018-08-04T15:13:12.676Z,33.55
2018-08-04T15:15:05.519Z,33.60
2018-08-04T15:16:05.421Z,33.30
2018-08-04T15:17:58.243Z,32.88
2018-08-04T15:18:58.169Z,32.91
2018-08-04T15:20:51.529Z,32.38
2018-08-04T15:21:51.429Z,32.23
2018-08-04T15:23:44.266Z,32.14
2018-08-04T15:24:44.165Z,32.50
2018-08-04T15:26:37.013Z,33.19
2018-08-04T15:27:36.938Z,33.45
2018-08-04T15:29:29.757Z,34.04
2018-08-04T15:30:29.665Z,34.00
2018-08-04T15:32:23.015Z,34.08
2018-08-04T15:33:22.936Z,34.22
2018-08-04T15:35:15.751Z,34.01
2018-08-04T15:36:15.664Z,34.34
2018-08-04T15:38:08.625Z,34.40
2018-08-04T15:39:08.434Z,34.53
2018-08-04T15:41:01.260Z,34.20
2018-08-04T15:42:01.199Z,34.26
2018-08-04T15:43:54.016Z,34.04
2018-08-04T15:44:53.919Z,33.95
2018-08-04T15:46:47.286Z,34.87
2018-08-04T15:47:47.201Z,35.26
2018-08-04T15:49:40.049Z,35.28
2018-08-04T15:50:39.973Z,34.70
2018-08-04T15:52:32.799Z,34.19
2018-08-04T15:53:32.707Z,34.63
2018-08-04T15:55:25.544Z,34.45
2018-08-04T15:56:25.451Z,34.73
2018-08-04T15:58:18.277Z,34.72
2018-08-04T15:59:18.184Z,34.76
2018-08-04T16:01:11.009Z,34.91
2018-08-04T16:02:10.930Z,34.62
2018-08-04T16:04:03.791Z,35.29
2018-08-04T16:05:03.688Z,35.58
2018-08-04T16:06:56.507Z,35.88
2018-08-04T16:07:56.468Z,35.32
2018-08-04T16:09:49.311Z,35.13
2018-08-04T16:10:49.183Z,35.01
2018-08-04T16:12:42.010Z,34.32
2018-08-04T16:13:41.936Z,34.82
2018-08-04T16:15:34.770Z,35.32
2018-08-04T16:16:34.729Z,35.09
2018-08-04T16:18:27.545Z,35.01
2018-08-04T16:19:27.965Z,34.87
2018-08-04T16:21:20.272Z,35.47
2018-08-04T16:22:20.192Z,35.72
2018-08-04T16:24:13.021Z,35.79
2018-08-04T16:25:12.929Z,35.88
2018-08-04T16:27:05.764Z,36.09
2018-08-04T16:28:06.299Z,35.94
2018-08-04T16:29:58.524Z,35.21
2018-08-04T16:30:58.431Z,35.34
2018-08-04T16:32:51.262Z,34.94
2018-08-04T16:33:51.183Z,35.13
2018-08-04T16:35:44.040Z,35.02
2018-08-04T16:36:43.922Z,35.09
2018-08-04T16:38:36.781Z,35.36
2018-08-04T16:39:36.683Z,35.29
2018-08-04T16:41:30.084Z,35.14
2018-08-04T16:42:29.440Z,34.86
2018-08-04T16:44:22.269Z,34.52
2018-08-04T16:45:22.170Z,33.88
2018-08-04T16:47:15.016Z,33.24
2018-08-04T16:48:14.924Z,33.67
2018-08-04T16:50:07.777Z,33.98
2018-08-04T16:51:07.674Z,33.95
2018-08-04T16:53:00.537Z,33.22
2018-08-04T16:54:00.430Z,33.48
2018-08-04T16:55:53.293Z,33.88
2018-08-04T16:56:53.200Z,34.29
2018-08-04T16:58:46.048Z,34.45
2018-08-04T16:59:45.927Z,34.34
2018-08-04T17:01:39.306Z,34.38
2018-08-04T17:02:39.195Z,34.37
2018-08-04T17:04:32.631Z,34.22
2018-08-04T17:05:31.954Z,33.27
2018-08-04T17:07:24.788Z,33.14
2018-08-04T17:08:24.686Z,33.17
2018-08-04T17:10:17.542Z,33.49
2018-08-04T17:11:17.431Z,33.58
2018-08-04T17:13:10.280Z,34.06
2018-08-04T17:14:10.191Z,34.41
2018-08-04T17:16:03.051Z,34.52
2018-08-04T17:17:02.942Z,34.25
2018-08-04T17:18:55.782Z,34.18
2018-08-04T17:19:55.682Z,33.82
2018-08-04T17:21:48.544Z,34.20
2018-08-04T17:22:48.442Z,34.70
2018-08-04T17:24:41.272Z,35.47
2018-08-04T17:25:41.211Z,35.54
2018-08-04T17:27:34.046Z,34.94
2018-08-04T17:28:33.937Z,35.31
2018-08-04T17:30:27.821Z,34.76
2018-08-04T17:31:26.705Z,34.90
2018-08-04T17:33:19.541Z,34.85
2018-08-04T17:34:19.435Z,34.82
2018-08-04T17:36:12.310Z,34.66
2018-08-04T17:37:12.244Z,34.62
2018-08-04T17:39:05.025Z,35.02
2018-08-04T17:40:04.954Z,35.01
2018-08-04T17:41:57.780Z,35.24
2018-08-04T17:42:57.708Z,34.97
2018-08-04T17:44:50.512Z,34.72
2018-08-04T17:45:50.430Z,34.57
2018-08-04T17:47:43.293Z,34.45
2018-08-04T17:48:43.182Z,34.70
2018-08-04T17:50:36.003Z,34.56
2018-08-04T17:51:35.965Z,34.73
2018-08-04T17:53:28.767Z,34.16
2018-08-04T17:54:28.693Z,34.32
2018-08-04T17:56:22.047Z,34.44
2018-08-04T17:57:22.008Z,34.32
2018-08-04T17:59:14.773Z,34.18
2018-08-04T18:00:14.700Z,33.89
2018-08-04T18:02:07.542Z,33.85
2018-08-04T18:03:07.439Z,33.84
2018-08-04T18:05:00.291Z,33.13
2018-08-04T18:06:00.203Z,32.82
2018-08-04T18:07:53.038Z,32.05
2018-08-04T18:08:52.941Z,31.70
2018-08-04T18:10:45.768Z,31.15
2018-08-04T18:11:45.689Z,30.88
2018-08-04T18:13:38.612Z,30.52
2018-08-04T18:14:38.446Z,30.37
2018-08-04T18:16:31.278Z,30.17
2018-08-04T18:17:31.203Z,30.00
2018-08-04T18:19:24.007Z,29.91
2018-08-04T18:20:23.932Z,29.77
2018-08-04T18:22:16.785Z,29.62
2018-08-04T18:23:16.678Z,29.62
2018-08-04T18:25:10.383Z,29.44
2018-08-04T18:26:10.316Z,29.33
2018-08-04T18:28:04.121Z,29.25
2018-08-04T18:29:04.040Z,29.25
2018-08-04T18:30:57.412Z,29.12
2018-08-04T18:31:57.305Z,29.04
2018-08-04T18:33:50.126Z,29.02